Sea Aeolis — 3FMJ4 — position and weather

sailwx.info

Track history (hours):
 
Tides and Currents Weather Stations Pressure Air Temp Water Temp Dewpoint Dewpoint Depression Visibility Wind Speed Wind Dir Waves Ship Positions

Sea Aeolis

Last reported at 2017-Oct-17 22:21 UTC. Time now 2017-Oct-18 13:04 UTC.
Position N 44°26' E 037°24'.

Length 108 m; draft 5.7 m.

Type: Cargo ship. MMSI: 353430000.

Date/timePositionNaut miles runAvg speedWind from/ knotsBaromVisibWave heightAir tempDewpointWater temp
2017-Oct-17 22:21N 44°26' E 037°24'412.5
2017-Oct-17 22:00N 44°28' E 037°29'612.3
2017-Oct-17 21:31N 44°31' E 037°37'612.3
2017-Oct-17 21:00N 44°34' E 037°44'612.3
2017-Oct-17 20:30N 44°38' E 037°50'4 7.5
2017-Oct-17 20:00N 44°42' E 037°49'2 3.9
2017-Oct-17 19:29N 44°44' E 037°47'0 0.4
2017-Oct-17 18:59N 44°44' E 037°47'0 0.0
2017-Oct-17 18:29N 44°44' E 037°47'0 0.0
2017-Oct-17 17:59N 44°44' E 037°47'0 0.0
2017-Oct-17 17:29N 44°44' E 037°47'0 0.0
2017-Oct-17 16:59N 44°44' E 037°47'0 0.0
2017-Oct-17 16:29N 44°44' E 037°47'0 0.0
2017-Oct-17 15:59N 44°44' E 037°47'0 0.0
2017-Oct-17 15:29N 44°44' E 037°47'0 0.1
2017-Oct-17 15:00N 44°44' E 037°47'2 3.4
2017-Oct-17 14:28N 44°43' E 037°49'0 0.0
2017-Oct-17 13:28N 44°43' E 037°49'0 0.0
2017-Oct-17 12:58N 44°43' E 037°49'0 0.0
2017-Oct-17 12:28N 44°43' E 037°49'0 0.0
2017-Oct-17 11:58N 44°43' E 037°49'0 0.0
2017-Oct-17 11:28N 44°43' E 037°49'0 0.0
2017-Oct-17 10:58N 44°43' E 037°49'0 0.0
2017-Oct-17 10:28N 44°43' E 037°49'0 0.0
2017-Oct-17 09:58N 44°43' E 037°49'0 0.0
2017-Oct-17 09:28N 44°43' E 037°49'0 0.0
2017-Oct-17 08:58N 44°43' E 037°49'0 0.0
2017-Oct-17 08:28N 44°43' E 037°49'0 0.0
2017-Oct-17 07:58N 44°43' E 037°49'0 0.0
2017-Oct-17 07:28N 44°43' E 037°49'0 0.0
2017-Oct-17 06:58N 44°43' E 037°49'0 0.0
2017-Oct-17 06:28N 44°43' E 037°49'0 0.0
2017-Oct-17 05:58N 44°43' E 037°49'0 0.0
2017-Oct-17 05:28N 44°43' E 037°49'0 0.0
2017-Oct-17 04:58N 44°43' E 037°49'0 0.0
2017-Oct-17 04:30N 44°43' E 037°49'0 0.6
2017-Oct-17 04:00N 44°43' E 037°49'3 5.7
2017-Oct-17 03:30N 44°40' E 037°50'3 5.4
2017-Oct-17 03:00N 44°38' E 037°52'3 5.3
2017-Oct-17 02:30N 44°36' E 037°54'2 3.2
2017-Oct-17 01:55N 44°35' E 037°56'0 0.0
2017-Oct-17 01:28N 44°35' E 037°56'0 0.0
2017-Oct-17 00:58N 44°35' E 037°56'0 0.0
2017-Oct-17 00:28N 44°35' E 037°56'0 0.0
2017-Oct-16 23:58N 44°35' E 037°56'0 0.0
2017-Oct-16 23:28N 44°35' E 037°56'0 0.0
2017-Oct-16 22:58N 44°35' E 037°56'0 0.0
2017-Oct-16 22:28N 44°35' E 037°56'0 0.1
2017-Oct-16 21:58N 44°35' E 037°56'0 0.0
2017-Oct-16 21:28N 44°35' E 037°56'0 0.0
2017-Oct-16 20:58N 44°35' E 037°56'0 0.0
2017-Oct-16 20:28N 44°35' E 037°56'0 0.0
2017-Oct-16 19:58N 44°35' E 037°56'0 0.0
2017-Oct-16 19:28N 44°35' E 037°56'0 0.0
2017-Oct-16 18:58N 44°35' E 037°56'0 0.0
2017-Oct-16 18:07N 44°35' E 037°56'0 0.0
2017-Oct-16 17:58N 44°35' E 037°56'0 0.0
2017-Oct-16 17:28N 44°35' E 037°56'0 0.0
2017-Oct-16 16:58N 44°35' E 037°56'0 0.0
2017-Oct-16 16:28N 44°35' E 037°56'0 0.0
2017-Oct-16 15:58N 44°35' E 037°56'0 0.0
2017-Oct-16 15:28N 44°35' E 037°56'0 0.0
2017-Oct-16 14:58N 44°35' E 037°56'0 0.0
2017-Oct-16 14:28N 44°35' E 037°56'0 0.0
2017-Oct-16 13:28N 44°35' E 037°56'0 0.1
2017-Oct-16 12:58N 44°35' E 037°56'0 0.0
2017-Oct-16 12:28N 44°35' E 037°56'0 0.0
2017-Oct-16 11:58N 44°35' E 037°56'0 0.0
2017-Oct-16 11:28N 44°35' E 037°56'0 0.0
2017-Oct-16 10:58N 44°35' E 037°56'0 0.0
2017-Oct-16 10:25N 44°35' E 037°56'0 0.0
2017-Oct-16 09:58N 44°35' E 037°56'0 0.0
2017-Oct-16 09:28N 44°35' E 037°56'0 0.0
2017-Oct-16 08:55N 44°35' E 037°56'0 0.0
2017-Oct-16 08:28N 44°35' E 037°56'0 0.0
2017-Oct-16 07:58N 44°35' E 037°56'0 0.1
2017-Oct-16 07:28N 44°35' E 037°56'0 0.0
2017-Oct-16 06:58N 44°35' E 037°56'0 0.0
2017-Oct-16 06:28N 44°35' E 037°56'0 0.0
2017-Oct-16 05:58N 44°35' E 037°56'0 0.1
2017-Oct-16 05:28N 44°35' E 037°56'0 0.0
2017-Oct-16 04:58N 44°35' E 037°56'0 0.0
2017-Oct-16 04:28N 44°35' E 037°56'0 0.1
2017-Oct-16 03:58N 44°35' E 037°56'0 0.0
2017-Oct-16 03:28N 44°35' E 037°56'0 0.0
2017-Oct-16 02:58N 44°35' E 037°56'0 0.0
2017-Oct-16 02:28N 44°35' E 037°56'0 0.1
2017-Oct-16 01:58N 44°35' E 037°56'0 0.0
2017-Oct-16 01:28N 44°35' E 037°56'0 0.0
2017-Oct-16 00:58N 44°35' E 037°56'0 0.0
2017-Oct-16 00:28N 44°35' E 037°56'0 0.1
2017-Oct-15 23:58N 44°35' E 037°56'0 0.1
2017-Oct-15 23:28N 44°35' E 037°56'0 0.0
2017-Oct-15 22:58N 44°35' E 037°56'0 0.1
2017-Oct-15 22:28N 44°35' E 037°56'0 0.0
2017-Oct-15 21:58N 44°35' E 037°56'0 0.0
2017-Oct-15 21:28N 44°35' E 037°56'0 0.1
2017-Oct-15 20:58N 44°35' E 037°56'0 0.0
2017-Oct-15 20:28N 44°35' E 037°56'0 0.1
2017-Oct-15 19:58N 44°35' E 037°56'0 0.1
2017-Oct-15 19:28N 44°35' E 037°56'0 0.1
2017-Oct-15 18:58N 44°35' E 037°56'0 0.1
2017-Oct-15 18:28N 44°35' E 037°56'0 0.1
2017-Oct-15 17:58N 44°35' E 037°56'0 0.1
2017-Oct-15 17:28N 44°35' E 037°56'0 0.0
2017-Oct-15 16:58N 44°35' E 037°56'0 0.0
2017-Oct-15 16:28N 44°35' E 037°56'0 0.0
2017-Oct-15 15:58N 44°35' E 037°56'0 0.0
2017-Oct-15 15:28N 44°35' E 037°56'0 0.1
2017-Oct-15 14:58N 44°35' E 037°56'0 0.1
2017-Oct-15 13:58N 44°35' E 037°56'0 0.0
2017-Oct-15 13:28N 44°35' E 037°56'0 0.0
2017-Oct-15 12:58N 44°35' E 037°56'0 0.1
2017-Oct-15 12:28N 44°35' E 037°56'0 0.0
2017-Oct-15 11:58N 44°35' E 037°56'0 0.0
2017-Oct-15 11:28N 44°35' E 037°56'0 0.0
2017-Oct-15 10:58N 44°35' E 037°56'0 0.0
2017-Oct-15 10:28N 44°35' E 037°56'0 0.0
2017-Oct-15 09:58N 44°35' E 037°56'0 0.1
2017-Oct-15 09:28N 44°35' E 037°56'0 0.0
2017-Oct-15 08:58N 44°35' E 037°56'0 0.0
2017-Oct-15 08:28N 44°35' E 037°56'0 0.0
2017-Oct-15 07:58N 44°35' E 037°56'0 0.0
2017-Oct-15 07:28N 44°35' E 037°56'0 0.0
2017-Oct-15 06:58N 44°35' E 037°56'0 0.0
2017-Oct-15 06:28N 44°35' E 037°56'0 0.0
2017-Oct-15 05:58N 44°35' E 037°56'0 0.0
2017-Oct-15 05:28N 44°35' E 037°56'0 0.0
2017-Oct-15 04:58N 44°35' E 037°56'0 0.0
2017-Oct-15 04:28N 44°35' E 037°56'0 0.0
2017-Oct-15 03:58N 44°35' E 037°56'0 0.0
2017-Oct-15 03:25N 44°35' E 037°56'0 0.1
2017-Oct-15 02:58N 44°35' E 037°56'0 0.0
2017-Oct-15 02:28N 44°35' E 037°56'0 0.0
2017-Oct-15 01:58N 44°35' E 037°56'0 0.0
2017-Oct-15 01:28N 44°35' E 037°56'0 0.0
2017-Oct-15 00:58N 44°35' E 037°56'0 0.1
2017-Oct-15 00:28N 44°35' E 037°56'0 0.1
2017-Oct-14 23:58N 44°35' E 037°56'0 0.0
2017-Oct-14 23:28N 44°35' E 037°56'0 0.0
2017-Oct-14 22:58N 44°35' E 037°56'0 0.0
2017-Oct-14 22:28N 44°35' E 037°56'0 0.0
2017-Oct-14 21:58N 44°35' E 037°56'0 0.0
2017-Oct-14 21:28N 44°35' E 037°56'0 0.0
2017-Oct-14 20:58N 44°35' E 037°56'0 0.0
2017-Oct-14 20:28N 44°35' E 037°56'0 0.0
2017-Oct-14 19:58N 44°35' E 037°56'0 0.0
2017-Oct-14 19:28N 44°35' E 037°56'0 0.0
2017-Oct-14 18:58N 44°35' E 037°56'0 0.0
2017-Oct-14 18:28N 44°35' E 037°56'0 0.0
2017-Oct-14 17:58N 44°35' E 037°56'0 0.0
2017-Oct-14 17:28N 44°35' E 037°56'0 0.0
2017-Oct-14 16:58N 44°35' E 037°56'0 0.0
2017-Oct-14 16:28N 44°35' E 037°56'0 0.0
2017-Oct-14 15:58N 44°35' E 037°56'0 0.2
2017-Oct-14 15:28N 44°35' E 037°56'0 0.4
2017-Oct-14 14:58N 44°35' E 037°56'0 0.0
2017-Oct-14 14:28N 44°35' E 037°56'0 0.0
2017-Oct-14 13:58N 44°35' E 037°56'0 0.0
2017-Oct-14 13:28N 44°35' E 037°56'0 0.0
2017-Oct-14 12:58N 44°35' E 037°56'0 0.0
2017-Oct-14 12:28N 44°35' E 037°56'0 0.0
2017-Oct-14 11:58N 44°35' E 037°56'0 0.0
2017-Oct-14 11:28N 44°35' E 037°56'0 0.0
2017-Oct-14 10:58N 44°35' E 037°56'0 0.0
2017-Oct-14 10:28N 44°35' E 037°56'0 0.0
2017-Oct-14 09:58N 44°35' E 037°56'0 0.0
2017-Oct-14 09:28N 44°35' E 037°56'0 0.0
2017-Oct-14 08:58N 44°35' E 037°56'0 0.0
2017-Oct-14 08:28N 44°35' E 037°56'0 0.1
2017-Oct-14 07:58N 44°35' E 037°56'0 0.0
2017-Oct-14 07:28N 44°35' E 037°56'0 0.0
2017-Oct-14 06:58N 44°35' E 037°56'0 0.0
2017-Oct-14 06:28N 44°35' E 037°56'0 0.0
2017-Oct-14 05:55N 44°35' E 037°56'0 0.1
2017-Oct-14 05:28N 44°35' E 037°56'0 0.0
2017-Oct-14 04:58N 44°35' E 037°56'0 0.0
2017-Oct-14 04:28N 44°35' E 037°56'0 0.0
2017-Oct-14 03:58N 44°35' E 037°56'0 0.1
2017-Oct-14 03:28N 44°35' E 037°56'0 0.2
2017-Oct-14 02:58N 44°35' E 037°56'0 0.0
2017-Oct-14 02:28N 44°35' E 037°56'0 0.0
2017-Oct-14 01:58N 44°35' E 037°56'0 0.1
2017-Oct-14 01:28N 44°35' E 037°56'0 0.0
2017-Oct-14 00:58N 44°35' E 037°56'0 0.0
2017-Oct-14 00:28N 44°35' E 037°56'0 0.0
2017-Oct-13 23:58N 44°35' E 037°56'0 0.0
2017-Oct-13 23:28N 44°35' E 037°56'0 0.0
2017-Oct-13 22:58N 44°35' E 037°56'0 0.0
2017-Oct-13 22:28N 44°35' E 037°56'0 0.0
2017-Oct-13 21:58N 44°35' E 037°56'0 0.0
2017-Oct-13 21:28N 44°35' E 037°56'0 0.0
2017-Oct-13 20:58N 44°35' E 037°56'0 0.0
2017-Oct-13 20:28N 44°35' E 037°56'0 0.0
2017-Oct-13 19:58N 44°35' E 037°56'0 0.0
2017-Oct-13 19:28N 44°35' E 037°56'0 0.0
2017-Oct-13 18:58N 44°35' E 037°56'0 0.1
2017-Oct-13 18:30N 44°35' E 037°56'1 2.4
2017-Oct-13 18:00N 44°35' E 037°55'612.0
2017-Oct-13 17:30N 44°31' E 037°48'45111.1
2017-Oct-12 00:43N 40°48' E 028°54'0 1.2
2017-Oct-12 00:29N 40°48' E 028°54'1 1.2
2017-Oct-12 00:00N 40°48' E 028°55'1 1.3
2017-Oct-11 23:30N 40°47' E 028°55'1 1.3
2017-Oct-11 22:52N 40°46' E 028°55'0 0.8
2017-Oct-11 22:28N 40°46' E 028°56'1 1.9
2017-Oct-11 22:00N 40°47' E 028°56'28212.1
2017-Oct-10 22:40N 37°44' E 024°18'1013.7
2017-Oct-10 21:55N 37°38' E 024°08'17 5.0
2017-Oct-10 18:34N 37°37' E 023°47'111.2
2017-Oct-10 18:30N 37°38' E 023°46'510.3
2017-Oct-10 18:00N 37°41' E 023°42'510.2
2017-Oct-10 17:30N 37°46' E 023°39'5 9.6
2017-Oct-10 17:00N 37°50' E 023°36'5 9.4
2017-Oct-10 16:30N 37°55' E 023°36'3 4.2
2017-Oct-10 15:54N 37°58' E 023°37'0 0.0
2017-Oct-10 15:30N 37°58' E 023°37'0 0.0
2017-Oct-10 15:00N 37°58' E 023°37'0 0.0
2017-Oct-10 13:48N 37°58' E 023°37'0 0.0
2017-Oct-10 13:30N 37°58' E 023°37'0 0.0
2017-Oct-10 13:00N 37°58' E 023°37'0 0.0
2017-Oct-10 12:30N 37°58' E 023°37'0 0.2
2017-Oct-10 12:01N 37°57' E 023°36'2 4.6
2017-Oct-10 11:31N 37°55' E 023°37'510.4
2017-Oct-10 11:00N 37°51' E 023°40'713.9
2017-Oct-10 10:30N 37°44' E 023°44'612.7
2017-Oct-10 10:00N 37°40' E 023°49'1413.5
2017-Oct-10 08:57N 37°38' E 024°07'29112.5
2017-Oct-09 09:36N 40°45' E 028°56'312.0
2017-Oct-09 09:24N 40°44' E 028°59'512.2
2017-Oct-09 09:00N 40°45' E 029°05'612.8
2017-Oct-09 08:30N 40°44' E 029°14'611.5
2017-Oct-09 08:00N 40°44' E 029°21'7 0.2
2017-Oct-08 03:13N 40°45' E 029°30'211.2
2017-Oct-08 03:00N 40°44' E 029°27'511.0
2017-Oct-08 02:30N 40°44' E 029°20'713.7
2017-Oct-08 02:00N 40°46' E 029°12'713.4
2017-Oct-08 01:30N 40°49' E 029°04'613.0
2017-Oct-08 01:00N 40°53' E 028°57'  
Track history (hours):
 
Tides and Currents Weather Stations Pressure Air Temp Water Temp Dewpoint Dewpoint Depression Visibility Wind Speed Wind Dir Waves Ship Positions

Sea Aeolis

Last reported at 2017-Oct-17 22:21 UTC. Time now 2017-Oct-18 13:04 UTC.
Position N 44°26' E 037°24'.

Length 108 m; draft 5.7 m.

Type: Cargo ship. MMSI: 353430000.

Date/timePositionNaut miles runAvg speedWind from/ knotsBaromVisibWave heightAir tempDewpointWater temp
2017-Oct-17 22:21N 44°26' E 037°24'412.5
2017-Oct-17 22:00N 44°28' E 037°29'612.3
2017-Oct-17 21:31N 44°31' E 037°37'612.3
2017-Oct-17 21:00N 44°34' E 037°44'612.3
2017-Oct-17 20:30N 44°38' E 037°50'4 7.5
2017-Oct-17 20:00N 44°42' E 037°49'2 3.9
2017-Oct-17 19:29N 44°44' E 037°47'0 0.4
2017-Oct-17 18:59N 44°44' E 037°47'0 0.0
2017-Oct-17 18:29N 44°44' E 037°47'0 0.0
2017-Oct-17 17:59N 44°44' E 037°47'0 0.0
2017-Oct-17 17:29N 44°44' E 037°47'0 0.0
2017-Oct-17 16:59N 44°44' E 037°47'0 0.0
2017-Oct-17 16:29N 44°44' E 037°47'0 0.0
2017-Oct-17 15:59N 44°44' E 037°47'0 0.0
2017-Oct-17 15:29N 44°44' E 037°47'0 0.1
2017-Oct-17 15:00N 44°44' E 037°47'2 3.4
2017-Oct-17 14:28N 44°43' E 037°49'0 0.0
2017-Oct-17 13:28N 44°43' E 037°49'0 0.0
2017-Oct-17 12:58N 44°43' E 037°49'0 0.0
2017-Oct-17 12:28N 44°43' E 037°49'0 0.0
2017-Oct-17 11:58N 44°43' E 037°49'0 0.0
2017-Oct-17 11:28N 44°43' E 037°49'0 0.0
2017-Oct-17 10:58N 44°43' E 037°49'0 0.0
2017-Oct-17 10:28N 44°43' E 037°49'0 0.0
2017-Oct-17 09:58N 44°43' E 037°49'0 0.0
2017-Oct-17 09:28N 44°43' E 037°49'0 0.0
2017-Oct-17 08:58N 44°43' E 037°49'0 0.0
2017-Oct-17 08:28N 44°43' E 037°49'0 0.0
2017-Oct-17 07:58N 44°43' E 037°49'0 0.0
2017-Oct-17 07:28N 44°43' E 037°49'0 0.0
2017-Oct-17 06:58N 44°43' E 037°49'0 0.0
2017-Oct-17 06:28N 44°43' E 037°49'0 0.0
2017-Oct-17 05:58N 44°43' E 037°49'0 0.0
2017-Oct-17 05:28N 44°43' E 037°49'0 0.0
2017-Oct-17 04:58N 44°43' E 037°49'0 0.0
2017-Oct-17 04:30N 44°43' E 037°49'0 0.6
2017-Oct-17 04:00N 44°43' E 037°49'3 5.7
2017-Oct-17 03:30N 44°40' E 037°50'3 5.4
2017-Oct-17 03:00N 44°38' E 037°52'3 5.3
2017-Oct-17 02:30N 44°36' E 037°54'2 3.2
2017-Oct-17 01:55N 44°35' E 037°56'0 0.0
2017-Oct-17 01:28N 44°35' E 037°56'0 0.0
2017-Oct-17 00:58N 44°35' E 037°56'0 0.0
2017-Oct-17 00:28N 44°35' E 037°56'0 0.0
2017-Oct-16 23:58N 44°35' E 037°56'0 0.0
2017-Oct-16 23:28N 44°35' E 037°56'0 0.0
2017-Oct-16 22:58N 44°35' E 037°56'0 0.0
2017-Oct-16 22:28N 44°35' E 037°56'0 0.1
2017-Oct-16 21:58N 44°35' E 037°56'0 0.0
2017-Oct-16 21:28N 44°35' E 037°56'0 0.0
2017-Oct-16 20:58N 44°35' E 037°56'0 0.0
2017-Oct-16 20:28N 44°35' E 037°56'0 0.0
2017-Oct-16 19:58N 44°35' E 037°56'0 0.0
2017-Oct-16 19:28N 44°35' E 037°56'0 0.0
2017-Oct-16 18:58N 44°35' E 037°56'0 0.0
2017-Oct-16 18:07N 44°35' E 037°56'0 0.0
2017-Oct-16 17:58N 44°35' E 037°56'0 0.0
2017-Oct-16 17:28N 44°35' E 037°56'0 0.0
2017-Oct-16 16:58N 44°35' E 037°56'0 0.0
2017-Oct-16 16:28N 44°35' E 037°56'0 0.0
2017-Oct-16 15:58N 44°35' E 037°56'0 0.0
2017-Oct-16 15:28N 44°35' E 037°56'0 0.0
2017-Oct-16 14:58N 44°35' E 037°56'0 0.0
2017-Oct-16 14:28N 44°35' E 037°56'0 0.0
2017-Oct-16 13:28N 44°35' E 037°56'0 0.1
2017-Oct-16 12:58N 44°35' E 037°56'0 0.0
2017-Oct-16 12:28N 44°35' E 037°56'0 0.0
2017-Oct-16 11:58N 44°35' E 037°56'0 0.0
2017-Oct-16 11:28N 44°35' E 037°56'0 0.0
2017-Oct-16 10:58N 44°35' E 037°56'0 0.0
2017-Oct-16 10:25N 44°35' E 037°56'0 0.0
2017-Oct-16 09:58N 44°35' E 037°56'0 0.0
2017-Oct-16 09:28N 44°35' E 037°56'0 0.0
2017-Oct-16 08:55N 44°35' E 037°56'0 0.0
2017-Oct-16 08:28N 44°35' E 037°56'0 0.0
2017-Oct-16 07:58N 44°35' E 037°56'0 0.1
2017-Oct-16 07:28N 44°35' E 037°56'0 0.0
2017-Oct-16 06:58N 44°35' E 037°56'0 0.0
2017-Oct-16 06:28N 44°35' E 037°56'0 0.0
2017-Oct-16 05:58N 44°35' E 037°56'0 0.1
2017-Oct-16 05:28N 44°35' E 037°56'0 0.0
2017-Oct-16 04:58N 44°35' E 037°56'0 0.0
2017-Oct-16 04:28N 44°35' E 037°56'0 0.1
2017-Oct-16 03:58N 44°35' E 037°56'0 0.0
2017-Oct-16 03:28N 44°35' E 037°56'0 0.0
2017-Oct-16 02:58N 44°35' E 037°56'0 0.0
2017-Oct-16 02:28N 44°35' E 037°56'0 0.1
2017-Oct-16 01:58N 44°35' E 037°56'0 0.0
2017-Oct-16 01:28N 44°35' E 037°56'0 0.0
2017-Oct-16 00:58N 44°35' E 037°56'0 0.0
2017-Oct-16 00:28N 44°35' E 037°56'0 0.1
2017-Oct-15 23:58N 44°35' E 037°56'0 0.1
2017-Oct-15 23:28N 44°35' E 037°56'0 0.0
2017-Oct-15 22:58N 44°35' E 037°56'0 0.1
2017-Oct-15 22:28N 44°35' E 037°56'0 0.0
2017-Oct-15 21:58N 44°35' E 037°56'0 0.0
2017-Oct-15 21:28N 44°35' E 037°56'0 0.1
2017-Oct-15 20:58N 44°35' E 037°56'0 0.0
2017-Oct-15 20:28N 44°35' E 037°56'0 0.1
2017-Oct-15 19:58N 44°35' E 037°56'0 0.1
2017-Oct-15 19:28N 44°35' E 037°56'0 0.1
2017-Oct-15 18:58N 44°35' E 037°56'0 0.1
2017-Oct-15 18:28N 44°35' E 037°56'0 0.1
2017-Oct-15 17:58N 44°35' E 037°56'0 0.1
2017-Oct-15 17:28N 44°35' E 037°56'0 0.0
2017-Oct-15 16:58N 44°35' E 037°56'0 0.0
2017-Oct-15 16:28N 44°35' E 037°56'0 0.0
2017-Oct-15 15:58N 44°35' E 037°56'0 0.0
2017-Oct-15 15:28N 44°35' E 037°56'0 0.1
2017-Oct-15 14:58N 44°35' E 037°56'0 0.1
2017-Oct-15 13:58N 44°35' E 037°56'0 0.0
2017-Oct-15 13:28N 44°35' E 037°56'0 0.0
2017-Oct-15 12:58N 44°35' E 037°56'0 0.1
2017-Oct-15 12:28N 44°35' E 037°56'0 0.0
2017-Oct-15 11:58N 44°35' E 037°56'0 0.0
2017-Oct-15 11:28N 44°35' E 037°56'0 0.0
2017-Oct-15 10:58N 44°35' E 037°56'0 0.0
2017-Oct-15 10:28N 44°35' E 037°56'0 0.0
2017-Oct-15 09:58N 44°35' E 037°56'0 0.1
2017-Oct-15 09:28N 44°35' E 037°56'0 0.0
2017-Oct-15 08:58N 44°35' E 037°56'0 0.0
2017-Oct-15 08:28N 44°35' E 037°56'0 0.0
2017-Oct-15 07:58N 44°35' E 037°56'0 0.0
2017-Oct-15 07:28N 44°35' E 037°56'0 0.0
2017-Oct-15 06:58N 44°35' E 037°56'0 0.0
2017-Oct-15 06:28N 44°35' E 037°56'0 0.0
2017-Oct-15 05:58N 44°35' E 037°56'0 0.0
2017-Oct-15 05:28N 44°35' E 037°56'0 0.0
2017-Oct-15 04:58N 44°35' E 037°56'0 0.0
2017-Oct-15 04:28N 44°35' E 037°56'0 0.0
2017-Oct-15 03:58N 44°35' E 037°56'0 0.0
2017-Oct-15 03:25N 44°35' E 037°56'0 0.1
2017-Oct-15 02:58N 44°35' E 037°56'0 0.0
2017-Oct-15 02:28N 44°35' E 037°56'0 0.0
2017-Oct-15 01:58N 44°35' E 037°56'0 0.0
2017-Oct-15 01:28N 44°35' E 037°56'0 0.0
2017-Oct-15 00:58N 44°35' E 037°56'0 0.1
2017-Oct-15 00:28N 44°35' E 037°56'0 0.1
2017-Oct-14 23:58N 44°35' E 037°56'0 0.0
2017-Oct-14 23:28N 44°35' E 037°56'0 0.0
2017-Oct-14 22:58N 44°35' E 037°56'0 0.0
2017-Oct-14 22:28N 44°35' E 037°56'0 0.0
2017-Oct-14 21:58N 44°35' E 037°56'0 0.0
2017-Oct-14 21:28N 44°35' E 037°56'0 0.0
2017-Oct-14 20:58N 44°35' E 037°56'0 0.0
2017-Oct-14 20:28N 44°35' E 037°56'0 0.0
2017-Oct-14 19:58N 44°35' E 037°56'0 0.0
2017-Oct-14 19:28N 44°35' E 037°56'0 0.0
2017-Oct-14 18:58N 44°35' E 037°56'0 0.0
2017-Oct-14 18:28N 44°35' E 037°56'0 0.0
2017-Oct-14 17:58N 44°35' E 037°56'0 0.0
2017-Oct-14 17:28N 44°35' E 037°56'0 0.0
2017-Oct-14 16:58N 44°35' E 037°56'0 0.0
2017-Oct-14 16:28N 44°35' E 037°56'0 0.0
2017-Oct-14 15:58N 44°35' E 037°56'0 0.2
2017-Oct-14 15:28N 44°35' E 037°56'0 0.4
2017-Oct-14 14:58N 44°35' E 037°56'0 0.0
2017-Oct-14 14:28N 44°35' E 037°56'0 0.0
2017-Oct-14 13:58N 44°35' E 037°56'0 0.0
2017-Oct-14 13:28N 44°35' E 037°56'0 0.0
2017-Oct-14 12:58N 44°35' E 037°56'0 0.0
2017-Oct-14 12:28N 44°35' E 037°56'0 0.0
2017-Oct-14 11:58N 44°35' E 037°56'0 0.0
2017-Oct-14 11:28N 44°35' E 037°56'0 0.0
2017-Oct-14 10:58N 44°35' E 037°56'0 0.0
2017-Oct-14 10:28N 44°35' E 037°56'0 0.0
2017-Oct-14 09:58N 44°35' E 037°56'0 0.0
2017-Oct-14 09:28N 44°35' E 037°56'0 0.0
2017-Oct-14 08:58N 44°35' E 037°56'0 0.0
2017-Oct-14 08:28N 44°35' E 037°56'0 0.1
2017-Oct-14 07:58N 44°35' E 037°56'0 0.0
2017-Oct-14 07:28N 44°35' E 037°56'0 0.0
2017-Oct-14 06:58N 44°35' E 037°56'0 0.0
2017-Oct-14 06:28N 44°35' E 037°56'0 0.0
2017-Oct-14 05:55N 44°35' E 037°56'0 0.1
2017-Oct-14 05:28N 44°35' E 037°56'0 0.0
2017-Oct-14 04:58N 44°35' E 037°56'0 0.0
2017-Oct-14 04:28N 44°35' E 037°56'0 0.0
2017-Oct-14 03:58N 44°35' E 037°56'0 0.1
2017-Oct-14 03:28N 44°35' E 037°56'0 0.2
2017-Oct-14 02:58N 44°35' E 037°56'0 0.0
2017-Oct-14 02:28N 44°35' E 037°56'0 0.0
2017-Oct-14 01:58N 44°35' E 037°56'0 0.1
2017-Oct-14 01:28N 44°35' E 037°56'0 0.0
2017-Oct-14 00:58N 44°35' E 037°56'0 0.0
2017-Oct-14 00:28N 44°35' E 037°56'0 0.0
2017-Oct-13 23:58N 44°35' E 037°56'0 0.0
2017-Oct-13 23:28N 44°35' E 037°56'0 0.0
2017-Oct-13 22:58N 44°35' E 037°56'0 0.0
2017-Oct-13 22:28N 44°35' E 037°56'0 0.0
2017-Oct-13 21:58N 44°35' E 037°56'0 0.0
2017-Oct-13 21:28N 44°35' E 037°56'0 0.0
2017-Oct-13 20:58N 44°35' E 037°56'0 0.0
2017-Oct-13 20:28N 44°35' E 037°56'0 0.0
2017-Oct-13 19:58N 44°35' E 037°56'0 0.0
2017-Oct-13 19:28N 44°35' E 037°56'0 0.0
2017-Oct-13 18:58N 44°35' E 037°56'0 0.1
2017-Oct-13 18:30N 44°35' E 037°56'1 2.4
2017-Oct-13 18:00N 44°35' E 037°55'612.0
2017-Oct-13 17:30N 44°31' E 037°48'45111.1
2017-Oct-12 00:43N 40°48' E 028°54'0 1.2
2017-Oct-12 00:29N 40°48' E 028°54'1 1.2
2017-Oct-12 00:00N 40°48' E 028°55'1 1.3
2017-Oct-11 23:30N 40°47' E 028°55'1 1.3
2017-Oct-11 22:52N 40°46' E 028°55'0 0.8
2017-Oct-11 22:28N 40°46' E 028°56'1 1.9
2017-Oct-11 22:00N 40°47' E 028°56'28212.1
2017-Oct-10 22:40N 37°44' E 024°18'1013.7
2017-Oct-10 21:55N 37°38' E 024°08'17 5.0
2017-Oct-10 18:34N 37°37' E 023°47'111.2
2017-Oct-10 18:30N 37°38' E 023°46'510.3
2017-Oct-10 18:00N 37°41' E 023°42'510.2
2017-Oct-10 17:30N 37°46' E 023°39'5 9.6
2017-Oct-10 17:00N 37°50' E 023°36'5 9.4
2017-Oct-10 16:30N 37°55' E 023°36'3 4.2
2017-Oct-10 15:54N 37°58' E 023°37'0 0.0
2017-Oct-10 15:30N 37°58' E 023°37'0 0.0
2017-Oct-10 15:00N 37°58' E 023°37'0 0.0
2017-Oct-10 13:48N 37°58' E 023°37'0 0.0
2017-Oct-10 13:30N 37°58' E 023°37'0 0.0
2017-Oct-10 13:00N 37°58' E 023°37'0 0.0
2017-Oct-10 12:30N 37°58' E 023°37'0 0.2
2017-Oct-10 12:01N 37°57' E 023°36'2 4.6
2017-Oct-10 11:31N 37°55' E 023°37'510.4
2017-Oct-10 11:00N 37°51' E 023°40'713.9
2017-Oct-10 10:30N 37°44' E 023°44'612.7
2017-Oct-10 10:00N 37°40' E 023°49'1413.5
2017-Oct-10 08:57N 37°38' E 024°07'29112.5
2017-Oct-09 09:36N 40°45' E 028°56'312.0
2017-Oct-09 09:24N 40°44' E 028°59'512.2
2017-Oct-09 09:00N 40°45' E 029°05'612.8
2017-Oct-09 08:30N 40°44' E 029°14'611.5
2017-Oct-09 08:00N 40°44' E 029°21'7 0.2
2017-Oct-08 03:13N 40°45' E 029°30'211.2
2017-Oct-08 03:00N 40°44' E 029°27'511.0
2017-Oct-08 02:30N 40°44' E 029°20'713.7
2017-Oct-08 02:00N 40°46' E 029°12'713.4
2017-Oct-08 01:30N 40°49' E 029°04'613.0
2017-Oct-08 01:00N 40°53' E 028°57'  

Dump ship's entire track history